createdAt,value
2022-09-02T00:00:48.530Z,11.69
2022-09-02T00:04:08.108Z,11.62
2022-09-02T00:07:24.615Z,11.55
2022-09-02T00:10:44.429Z,11.54
2022-09-02T00:14:04.085Z,11.45
2022-09-02T00:17:20.648Z,11.48
2022-09-02T00:20:38.300Z,11.42
2022-09-02T00:23:56.131Z,11.38
2022-09-02T00:27:13.027Z,11.37
2022-09-02T00:30:30.494Z,11.37
2022-09-02T00:33:46.964Z,11.36
2022-09-02T00:37:03.255Z,11.28
2022-09-02T00:40:24.107Z,11.29
2022-09-02T00:43:54.716Z,11.26
2022-09-02T00:47:12.143Z,11.24
2022-09-02T00:50:33.079Z,11.19
2022-09-02T00:53:53.144Z,11.11
2022-09-02T00:57:19.843Z,11.09
2022-09-02T01:00:43.301Z,11.06
2022-09-02T01:04:00.700Z,11.06
2022-09-02T01:07:18.698Z,11.00
2022-09-02T01:10:45.583Z,11.01
2022-09-02T01:14:02.652Z,10.94
2022-09-02T01:17:21.194Z,10.92
2022-09-02T01:20:37.776Z,10.84
2022-09-02T01:23:56.547Z,10.85
2022-09-02T01:27:13.004Z,10.85
2022-09-02T01:30:33.727Z,10.75
2022-09-02T01:33:52.165Z,10.81
2022-09-02T01:37:11.074Z,10.79
2022-09-02T01:40:28.765Z,10.70
2022-09-02T01:43:45.501Z,10.67
2022-09-02T01:47:02.692Z,10.66
2022-09-02T01:50:19.751Z,10.68
2022-09-02T01:53:37.545Z,10.64
2022-09-02T01:56:56.535Z,10.61
2022-09-02T02:00:18.395Z,10.59
2022-09-02T02:03:34.696Z,10.54
2022-09-02T02:06:53.564Z,10.53
2022-09-02T02:10:13.503Z,10.52
2022-09-02T02:13:31.716Z,10.54
2022-09-02T02:16:48.094Z,10.50
2022-09-02T02:20:04.396Z,10.48
2022-09-02T02:23:20.684Z,10.42
2022-09-02T02:26:38.157Z,10.38
2022-09-02T02:29:56.220Z,10.35
2022-09-02T02:33:12.813Z,10.32
2022-09-02T02:36:30.541Z,10.35
2022-09-02T02:39:49.686Z,10.32
2022-09-02T02:43:06.459Z,10.26
2022-09-02T02:46:23.581Z,10.22
2022-09-02T02:49:43.734Z,10.23
2022-09-02T02:53:03.159Z,10.20
2022-09-02T02:56:19.438Z,10.17
2022-09-02T02:59:37.661Z,10.16
2022-09-02T03:02:54.060Z,10.13
2022-09-02T03:06:13.882Z,10.12
2022-09-02T03:09:30.194Z,10.10
2022-09-02T03:12:48.474Z,10.12
2022-09-02T03:16:06.461Z,10.12
2022-09-02T03:19:22.694Z,10.13
2022-09-02T03:22:41.905Z,10.16
2022-09-02T03:25:58.186Z,10.19
2022-09-02T03:29:19.130Z,10.27
2022-09-02T03:32:36.842Z,10.28
2022-09-02T03:35:54.046Z,10.35
2022-09-02T03:39:13.162Z,10.29
2022-09-02T03:42:32.027Z,10.33
2022-09-02T03:45:48.939Z,10.29
2022-09-02T03:49:07.757Z,10.28
2022-09-02T03:52:25.140Z,10.27
2022-09-02T03:55:43.350Z,10.27
2022-09-02T03:59:01.790Z,10.19
2022-09-02T04:02:20.687Z,10.18
2022-09-02T04:05:37.683Z,10.16
2022-09-02T04:08:55.783Z,10.09
2022-09-02T04:12:13.608Z,10.14
2022-09-02T04:15:30.746Z,10.17
2022-09-02T04:18:47.558Z,10.22
2022-09-02T04:22:04.024Z,10.25
2022-09-02T04:25:27.680Z,10.31
2022-09-02T04:28:40.932Z,10.33
2022-09-02T04:31:57.493Z,10.37
2022-09-02T04:35:15.037Z,10.51
2022-09-02T04:38:32.289Z,10.70
2022-09-02T04:41:48.900Z,10.82
2022-09-02T04:45:05.399Z,10.91
2022-09-02T04:48:24.028Z,10.98
2022-09-02T04:51:40.980Z,11.05
2022-09-02T04:54:58.704Z,11.11
2022-09-02T04:58:15.743Z,11.20
2022-09-02T05:01:36.066Z,11.26
2022-09-02T05:05:05.147Z,11.30
2022-09-02T05:08:27.273Z,11.32
2022-09-02T05:11:47.736Z,11.33
2022-09-02T05:15:08.028Z,11.41
2022-09-02T05:18:24.628Z,11.46
2022-09-02T05:21:41.407Z,11.51
2022-09-02T05:24:59.285Z,11.58
2022-09-02T05:28:23.434Z,11.59
2022-09-02T05:31:42.650Z,11.65
2022-09-02T05:35:02.988Z,11.66
2022-09-02T05:38:21.700Z,11.70
2022-09-02T05:41:40.125Z,11.76
2022-09-02T05:44:58.071Z,11.78
2022-09-02T05:48:25.374Z,11.79
2022-09-02T05:51:49.753Z,11.88
2022-09-02T05:55:07.998Z,11.99
2022-09-02T05:58:26.261Z,12.03
2022-09-02T06:01:46.094Z,12.05
2022-09-02T06:05:09.920Z,12.18
2022-09-02T06:08:27.038Z,12.34
2022-09-02T06:11:46.119Z,12.50
2022-09-02T06:15:04.602Z,12.60
2022-09-02T06:18:22.634Z,12.76
2022-09-02T06:21:43.363Z,12.85
2022-09-02T06:25:06.323Z,13.08
2022-09-02T06:28:24.411Z,13.27
2022-09-02T06:31:42.920Z,13.43
2022-09-02T06:35:01.984Z,13.73
2022-09-02T06:38:21.305Z,14.08
2022-09-02T06:41:40.539Z,14.30
2022-09-02T06:44:58.473Z,14.61
2022-09-02T06:48:14.879Z,14.66
2022-09-02T06:51:37.639Z,15.01
2022-09-02T06:54:55.780Z,15.29
2022-09-02T06:58:24.621Z,15.54
2022-09-02T07:01:42.520Z,15.58
2022-09-02T07:05:17.041Z,16.01
2022-09-02T07:08:36.570Z,16.46
2022-09-02T07:12:35.072Z,16.39
2022-09-02T07:15:54.978Z,16.58
2022-09-02T07:19:17.365Z,16.88
2022-09-02T07:22:35.503Z,17.05
2022-09-02T07:25:53.283Z,17.16
2022-09-02T07:29:11.443Z,17.14
2022-09-02T07:32:28.368Z,17.59
2022-09-02T07:35:46.108Z,18.12
2022-09-02T07:39:01.904Z,18.71
2022-09-02T07:42:20.502Z,19.10
2022-09-02T07:45:39.061Z,18.81
2022-09-02T07:48:56.374Z,19.53
2022-09-02T07:52:14.304Z,20.04
2022-09-02T07:55:32.834Z,20.03
2022-09-02T07:58:51.149Z,19.79
2022-09-02T08:02:07.662Z,20.74
2022-09-02T08:05:24.696Z,20.53
2022-09-02T08:08:41.675Z,20.62
2022-09-02T08:11:59.841Z,20.64
2022-09-02T08:15:23.011Z,21.05
2022-09-02T08:18:45.272Z,21.19
2022-09-02T08:22:10.739Z,21.36
2022-09-02T08:25:30.013Z,21.58
2022-09-02T08:28:48.409Z,21.40
2022-09-02T08:32:04.761Z,21.76
2022-09-02T08:35:22.917Z,21.94
2022-09-02T08:38:39.249Z,22.03
2022-09-02T08:45:26.892Z,22.05
2022-09-02T08:48:50.843Z,22.44
2022-09-02T08:52:10.909Z,22.52
2022-09-02T08:55:33.446Z,22.46
2022-09-02T08:58:55.301Z,22.53
2022-09-02T09:02:21.059Z,22.43
2022-09-02T09:05:53.733Z,22.49
2022-09-02T09:09:18.975Z,22.59
2022-09-02T09:12:47.382Z,22.25
2022-09-02T09:16:08.914Z,21.86
2022-09-02T09:19:30.595Z,22.12
2022-09-02T09:22:49.935Z,21.96
2022-09-02T09:26:15.170Z,21.52
2022-09-02T09:29:32.242Z,21.27
2022-09-02T09:32:55.637Z,21.16
2022-09-02T09:36:13.612Z,20.96
2022-09-02T09:39:35.925Z,20.30
2022-09-02T09:42:57.903Z,20.71
2022-09-02T09:46:36.269Z,20.44
2022-09-02T09:49:53.122Z,20.23
2022-09-02T09:53:22.783Z,20.15
2022-09-02T09:56:42.744Z,20.15
2022-09-02T10:00:02.518Z,20.19
2022-09-02T10:03:32.986Z,20.17
2022-09-02T10:06:58.708Z,20.28
2022-09-02T10:10:30.351Z,20.28
2022-09-02T10:13:48.875Z,20.05
2022-09-02T10:17:28.304Z,20.32
2022-09-02T10:24:22.924Z,20.16
2022-09-02T10:27:49.315Z,20.41
2022-09-02T10:31:14.691Z,20.26
2022-09-02T10:34:39.016Z,20.35
2022-09-02T10:38:09.215Z,20.20
2022-09-02T10:45:05.350Z,20.29
2022-09-02T10:48:36.496Z,20.46
2022-09-02T10:51:57.937Z,20.42
2022-09-02T10:55:26.094Z,20.30
2022-09-02T11:02:35.700Z,19.79
2022-09-02T11:05:59.260Z,19.59
2022-09-02T11:09:44.091Z,19.64
2022-09-02T11:13:43.098Z,19.82
2022-09-02T11:17:05.218Z,19.66
2022-09-02T11:20:31.454Z,19.38
2022-09-02T11:23:55.692Z,19.62
2022-09-02T11:27:39.089Z,19.81
2022-09-02T11:30:44.327Z,19.74
2022-09-02T11:34:09.760Z,19.62
2022-09-02T11:37:47.468Z,19.73
2022-09-02T11:41:35.400Z,19.63
2022-09-02T11:45:32.942Z,19.50
2022-09-02T11:49:54.339Z,19.37
2022-09-02T11:53:25.181Z,19.06
2022-09-02T11:56:49.517Z,19.10
2022-09-02T12:07:49.551Z,19.11
2022-09-02T12:11:12.987Z,19.02
2022-09-02T12:15:12.421Z,19.01
2022-09-02T12:18:41.532Z,18.99
2022-09-02T12:22:44.510Z,18.94
2022-09-02T12:26:08.167Z,18.93
2022-09-02T12:29:41.625Z,18.95
2022-09-02T12:33:23.467Z,19.10
2022-09-02T12:37:03.340Z,19.23
2022-09-02T12:40:31.299Z,19.26
2022-09-02T12:44:00.804Z,19.22
2022-09-02T12:47:23.214Z,19.17
2022-09-02T12:50:56.260Z,19.13
2022-09-02T12:54:13.810Z,19.09
2022-09-02T12:57:32.809Z,19.07
2022-09-02T13:01:00.334Z,19.11
2022-09-02T13:04:38.420Z,19.04
2022-09-02T13:08:38.687Z,18.96
2022-09-02T13:12:44.197Z,19.11
2022-09-02T13:16:29.171Z,19.12
2022-09-02T13:20:04.357Z,19.16
2022-09-02T13:24:17.585Z,19.10
2022-09-02T13:28:43.169Z,19.12
2022-09-02T13:32:25.666Z,19.06
2022-09-02T13:35:45.766Z,19.11
2022-09-02T13:39:02.358Z,19.08
2022-09-02T13:42:32.742Z,19.07
2022-09-02T13:45:48.419Z,19.04
2022-09-02T13:49:04.903Z,18.94
2022-09-02T13:53:00.999Z,18.94
2022-09-02T13:55:47.457Z,18.94
2022-09-02T13:59:06.007Z,18.95
2022-09-02T14:02:38.317Z,18.98
2022-09-02T14:06:01.030Z,18.96
2022-09-02T14:09:26.617Z,18.96
2022-09-02T14:12:49.966Z,19.02
2022-09-02T14:16:36.618Z,19.05
2022-09-02T14:19:52.952Z,19.04
2022-09-02T14:23:11.108Z,18.98
2022-09-02T14:26:37.955Z,18.98
2022-09-02T14:29:58.270Z,18.97
2022-09-02T14:33:47.395Z,18.95
2022-09-02T14:37:03.722Z,18.96
2022-09-02T14:40:21.747Z,18.96
2022-09-02T14:43:44.530Z,19.00
2022-09-02T14:47:06.178Z,19.06
2022-09-02T14:50:26.243Z,19.02
2022-09-02T14:53:43.822Z,18.98
2022-09-02T14:57:03.960Z,18.93
2022-09-02T15:00:25.899Z,18.90
2022-09-02T15:03:46.230Z,18.91
2022-09-02T15:07:02.483Z,18.91
2022-09-02T15:10:24.464Z,18.95
2022-09-02T15:13:42.378Z,18.91
2022-09-02T15:16:58.738Z,18.89
2022-09-02T15:20:19.828Z,18.85
2022-09-02T15:23:41.753Z,18.85
2022-09-02T15:26:57.978Z,18.83
2022-09-02T15:30:16.920Z,18.85
2022-09-02T15:33:30.906Z,18.85
2022-09-02T15:36:47.122Z,18.85
2022-09-02T15:40:03.854Z,18.81
2022-09-02T15:43:22.126Z,18.80
2022-09-02T15:46:40.961Z,18.75
2022-09-02T15:49:59.616Z,18.76
2022-09-02T15:53:16.143Z,18.73
2022-09-02T15:56:35.382Z,18.74
2022-09-02T15:59:52.248Z,18.72
2022-09-02T16:03:08.583Z,18.67
2022-09-02T16:06:25.037Z,18.66
2022-09-02T16:09:43.729Z,18.63
2022-09-02T16:13:08.737Z,18.61
2022-09-02T16:16:42.869Z,18.59
2022-09-02T16:20:00.268Z,18.56
2022-09-02T16:23:16.471Z,18.55
2022-09-02T16:26:38.926Z,18.53
2022-09-02T16:29:55.329Z,18.52
2022-09-02T16:33:14.655Z,18.49
2022-09-02T16:36:34.191Z,18.45
2022-09-02T16:39:50.836Z,18.46
2022-09-02T16:43:07.384Z,18.44
2022-09-02T16:46:24.135Z,18.41
2022-09-02T16:49:42.984Z,18.40
2022-09-02T16:53:02.564Z,18.37
2022-09-02T16:56:23.663Z,18.33
2022-09-02T16:59:43.038Z,18.31
2022-09-02T17:02:58.972Z,18.26
2022-09-02T17:06:31.024Z,18.19
2022-09-02T17:09:51.697Z,18.17
2022-09-02T17:13:09.446Z,18.18
2022-09-02T17:16:29.817Z,18.16
2022-09-02T17:19:50.406Z,18.13
2022-09-02T17:23:09.445Z,18.09
2022-09-02T17:26:28.503Z,18.03
2022-09-02T17:29:50.343Z,18.04
2022-09-02T17:33:01.318Z,18.00
2022-09-02T17:36:18.379Z,18.00
2022-09-02T17:39:34.772Z,17.93
2022-09-02T17:42:51.181Z,17.92
2022-09-02T17:46:24.262Z,17.87
2022-09-02T17:49:42.246Z,17.84
2022-09-02T17:52:58.830Z,17.82
2022-09-02T17:56:27.424Z,17.80
2022-09-02T17:59:57.894Z,17.75
2022-09-02T18:03:46.711Z,17.71
2022-09-02T18:07:09.463Z,17.68
2022-09-02T18:10:27.044Z,17.59
2022-09-02T18:13:54.754Z,17.56
2022-09-02T18:17:22.092Z,17.50
2022-09-02T18:20:49.642Z,17.45
2022-09-02T18:24:11.597Z,17.37
2022-09-02T18:27:36.391Z,17.29
2022-09-02T18:30:58.442Z,17.23
2022-09-02T18:34:34.694Z,17.18
2022-09-02T18:38:00.981Z,17.10
2022-09-02T18:41:33.420Z,17.03
2022-09-02T18:45:02.155Z,16.96
2022-09-02T18:48:22.578Z,16.90
2022-09-02T18:51:46.752Z,16.85
2022-09-02T18:55:10.707Z,16.76
2022-09-02T18:58:37.558Z,16.74
2022-09-02T19:01:57.961Z,16.67
2022-09-02T19:05:16.161Z,16.60
2022-09-02T19:08:35.650Z,16.53
2022-09-02T19:11:59.028Z,16.48
2022-09-02T19:15:34.844Z,16.44
2022-09-02T19:18:52.908Z,16.43
2022-09-02T19:22:12.734Z,16.40
2022-09-02T19:25:32.890Z,16.37
2022-09-02T19:28:52.350Z,16.32
2022-09-02T19:32:11.518Z,16.30
2022-09-02T19:35:32.993Z,16.30
2022-09-02T19:38:49.185Z,16.25
2022-09-02T19:42:05.939Z,16.28
2022-09-02T19:45:22.420Z,16.27
2022-09-02T19:48:40.226Z,16.25
2022-09-02T19:51:56.926Z,16.20
2022-09-02T19:55:17.789Z,16.17
2022-09-02T19:58:35.473Z,16.14
2022-09-02T20:01:52.807Z,16.08
2022-09-02T20:05:09.582Z,15.93
2022-09-02T20:08:28.367Z,16.00
2022-09-02T20:11:45.315Z,15.88
2022-09-02T20:15:01.658Z,15.80
2022-09-02T20:18:23.878Z,15.79
2022-09-02T20:21:44.338Z,15.80
2022-09-02T20:25:02.237Z,15.78
2022-09-02T20:28:30.051Z,15.80
2022-09-02T20:32:02.044Z,15.78
2022-09-02T20:35:54.058Z,15.77
2022-09-02T20:39:37.984Z,15.78
2022-09-02T20:43:14.643Z,15.76
2022-09-02T20:47:01.109Z,15.75
2022-09-02T20:50:43.375Z,15.71
2022-09-02T20:54:23.370Z,15.69
2022-09-02T20:57:51.478Z,15.66
2022-09-02T21:01:18.437Z,15.61
2022-09-02T21:04:48.840Z,15.60
2022-09-02T21:08:11.490Z,15.55
2022-09-02T21:11:30.672Z,15.52
2022-09-02T21:14:48.159Z,15.44
2022-09-02T21:18:09.099Z,15.36
2022-09-02T21:21:33.488Z,15.31
2022-09-02T21:24:55.688Z,15.27
2022-09-02T21:28:17.643Z,15.23
2022-09-02T21:31:39.925Z,15.17
2022-09-02T21:35:03.997Z,15.14
2022-09-02T21:38:25.063Z,15.09
2022-09-02T21:41:44.894Z,15.06
2022-09-02T21:45:14.235Z,15.02
2022-09-02T21:48:38.334Z,14.94
2022-09-02T21:51:59.370Z,14.89
2022-09-02T21:55:23.794Z,14.79
2022-09-02T21:59:36.775Z,14.76
2022-09-02T22:03:04.997Z,14.67
2022-09-02T22:06:30.956Z,14.60
2022-09-02T22:09:51.085Z,14.55
2022-09-02T22:13:09.083Z,14.54
2022-09-02T22:16:37.762Z,14.56
2022-09-02T22:19:56.076Z,14.56
2022-09-02T22:23:20.740Z,14.53
2022-09-02T22:26:47.010Z,14.50
2022-09-02T22:30:11.158Z,14.46
2022-09-02T22:33:34.513Z,14.45
2022-09-02T22:37:00.636Z,14.38
2022-09-02T22:40:25.163Z,14.33
2022-09-02T22:43:45.218Z,14.26
2022-09-02T22:47:31.786Z,14.21
2022-09-02T22:51:07.791Z,14.19
2022-09-02T22:54:24.060Z,14.07
2022-09-02T22:57:48.334Z,14.04
2022-09-02T23:01:14.306Z,14.01
2022-09-02T23:04:54.813Z,14.01
2022-09-02T23:08:12.064Z,14.00
2022-09-02T23:11:36.121Z,14.02
2022-09-02T23:15:06.485Z,14.03
2022-09-02T23:18:28.696Z,13.88
2022-09-02T23:21:51.936Z,13.63
2022-09-02T23:25:16.891Z,13.49
2022-09-02T23:28:38.937Z,13.52
2022-09-02T23:32:26.163Z,13.56
2022-09-02T23:35:49.070Z,13.58
2022-09-02T23:39:25.802Z,13.51
2022-09-02T23:42:42.687Z,13.41
2022-09-02T23:46:00.014Z,13.46
2022-09-02T23:49:23.612Z,13.50
2022-09-02T23:52:45.519Z,13.34
2022-09-02T23:56:14.771Z,13.39
2022-09-02T23:59:37.534Z,13.50
